Data for 10/27/2014

Time Sea-Level Adjusted Pressure Absolute Pressure Temperature Relative Humidity Dew Point   
(mb) (inHg) (mb) (inHg) (C) (F) (%) (C) (F)
00:05 1014 29.94 844 24.92 3 37.4 55 -5.3 22.5
00:10 1015 29.97 844 24.92 2.9 37.3 54 -5.5 22.1
00:15 1015 29.97 844 24.92 3 37.4 55 -5.2 22.7
00:20 1015 29.97 844 24.92 2.9 37.1 56 -4.9 23.1
00:25 1015 29.97 844 24.92 2.6 36.6 57 -5.1 22.9
00:30 1015 29.97 844 24.92 2.4 36.4 57 -5.1 22.8
00:35 1015 29.97 844 24.92 2.4 36.3 57 -5.2 22.7
00:40 1015 29.97 844 24.92 2.4 36.2 58 -5.1 22.8
00:45 1015 29.97 844 24.92 2.2 36 59 -5 23
00:50 1015 29.97 844 24.92 2.1 35.8 59 -5.1 22.9
00:55 1015 29.97 844 24.92 2.1 35.8 57 -5.5 22.1
01:00 1015 29.97 844 24.92 2.3 36.1 56 -5.7 21.7
01:05 1015 29.97 844 24.92 2.5 36.4 54 -5.8 21.5
01:10 1015 29.97 844 24.92 2.4 36.4 56 -5.5 22.2
01:15 1015 29.97 844 24.92 2.2 35.9 57 -5.5 22.1
01:20 1015 29.97 844 24.92 2.2 36 56 -5.6 21.9
01:25 1015 29.97 844 24.92 2.4 36.4 56 -5.5 22
01:30 1015 29.97 844 24.92 2.4 36.3 56 -5.6 22
01:35 1015 29.97 844 24.92 2.5 36.5 53 -6.1 21.1
01:40 1015 29.97 844 24.92 2.7 36.8 54 -5.6 21.8
01:45 1015 29.97 844 24.92 2.6 36.7 54 -5.7 21.8
01:50 1015 29.97 844 24.92 2.7 36.8 54 -5.7 21.7
01:55 1015 29.97 844 24.92 2.8 37 53 -5.9 21.4
02:00 1015 29.97 844 24.92 2.9 37.3 53 -5.8 21.6
02:05 1015 29.97 844 24.92 2.8 37.1 54 -5.5 22
02:10 1015 29.97 844 24.92 2.8 37 55 -5.5 22.2
02:15 1015 29.97 845 24.95 2.8 37 55 -5.4 22.2
02:20 1015 29.97 845 24.95 2.8 37 54 -5.6 22
02:25 1015 29.97 845 24.95 2.8 37.1 55 -5.5 22.2
02:30 1015 29.97 845 24.95 2.9 37.1 54 -5.7 21.8
02:35 1015 29.97 845 24.95 2.9 37.2 54 -5.6 22
02:40 1015 29.97 845 24.95 2.9 37.2 53 -5.7 21.8
02:45 1015 29.97 845 24.95 3 37.4 54 -5.4 22.3
02:50 1015 29.97 845 24.95 2.9 37.3 55 -5.3 22.4
02:55 1016 30 845 24.95 2.8 37.1 55 -5.2 22.6
03:00 1016 30 845 24.95 2.8 37 56 -5.2 22.7
03:05 1016 30 845 24.95 2.8 37.1 55 -5.3 22.5
03:10 1016 30 845 24.95 2.9 37.2 56 -5 22.9
03:15 1016 30 845 24.95 2.9 37.1 56 -5 22.9
03:20 1016 30 845 24.95 2.9 37.1 56 -5 22.9
03:25 1016 30 845 24.95 2.9 37.2 56 -5 23
03:30 1016 30 845 24.95 2.8 37.1 56 -5.1 22.8
03:35 1016 30 845 24.95 2.8 37.1 56 -5 22.9
03:40 1016 30 845 24.95 2.8 37 56 -5.2 22.7
03:45 1016 30 845 24.95 2.8 37 55 -5.4 22.3
03:50 1016 30 845 24.95 2.9 37.2 54 -5.5 22.1
03:55 1016 30 845 24.95 3 37.3 53 -5.6 21.9
04:00 1016 30 845 24.95 2.9 37.3 55 -5.2 22.7
04:05 1016 30 845 24.95 2.9 37.2 54 -5.5 22
04:10 1016 30 845 24.95 3 37.4 52 -5.8 21.5
04:15 1016 30 845 24.95 3.1 37.7 52 -5.8 21.5
04:20 1016 30 845 24.95 3.2 37.7 51 -6 21.2
04:25 1016 30 845 24.95 3.3 37.9 49 -6.4 20.5
04:30 1016 30 846 24.98 3.3 38 51 -6 21.2
04:35 1016 30 846 24.98 3.2 37.8 50 -6.1 21.1
04:40 1016 30 846 24.98 3.2 37.8 51 -5.9 21.3
04:45 1016 30 846 24.98 3.2 37.7 51 -6 21.1
04:50 1016 30 846 24.98 3.2 37.7 53 -5.5 22.1
04:55 1017 30.03 846 24.98 3 37.3 54 -5.5 22
05:00 1017 30.03 846 24.98 2.9 37.2 53 -5.7 21.7
05:05 1017 30.03 846 24.98 2.9 37.3 52 -5.8 21.5
05:10 1017 30.03 846 24.98 3 37.4 53 -5.7 21.7
05:15 1017 30.03 846 24.98 3 37.3 53 -5.8 21.6
05:20 1017 30.03 846 24.98 2.9 37.3 53 -5.8 21.6
05:25 1017 30.03 846 24.98 2.9 37.3 53 -5.7 21.8
05:30 1017 30.03 846 24.98 2.9 37.2 53 -5.8 21.6
05:35 1017 30.03 846 24.98 2.9 37.2 53 -5.8 21.5
05:40 1017 30.03 846 24.98 3 37.3 52 -6 21.3
05:45 1017 30.03 846 24.98 3 37.4 52 -6 21.2
05:50 1017 30.03 846 24.98 3 37.4 52 -5.8 21.5
05:55 1017 30.03 846 24.98 3 37.4 53 -5.8 21.6
06:00 1017 30.03 846 24.98 2.9 37.3 52 -5.9 21.3
06:05 1017 30.03 846 24.98 3 37.5 51 -6.1 21.1
06:10 1017 30.03 846 24.98 3.2 37.7 51 -6.1 21
06:15 1017 30.03 846 24.98 3.2 37.7 51 -6.1 21.1
06:20 1017 30.03 846 24.98 3.1 37.6 52 -5.9 21.4
06:25 1017 30.03 846 24.98 3 37.5 52 -5.9 21.3
06:30 1017 30.03 846 24.98 3 37.5 51 -6.2 20.9
06:35 1017 30.03 846 24.98 3.1 37.5 51 -6.2 20.9
06:40 1017 30.03 846 24.98 3 37.4 52 -5.9 21.4
06:45 1017 30.03 846 24.98 3 37.4 51 -6.2 20.8
06:50 1017 30.03 846 24.98 3 37.4 52 -6 21.1
06:55 1017 30.03 846 24.98 2.9 37.2 52 -6 21.2
07:00 1017 30.03 846 24.98 2.8 37 52 -6.2 20.8
07:05 1017 30.03 846 24.98 2.8 37.1 51 -6.2 20.8
07:10 1017 30.03 846 24.98 2.9 37.1 51 -6.2 20.9
07:15 1017 30.03 846 24.98 2.9 37.2 52 -6 21.2
07:20 1017 30.03 846 24.98 2.9 37.1 52 -6 21.2
07:25 1017 30.03 846 24.98 2.8 37.1 52 -6 21.2
07:30 1017 30.03 846 24.98 2.8 37.1 52 -6.1 20.9
07:35 1017 30.03 847 25.01 2.9 37.2 51 -6.2 20.8
07:40 1017 30.03 847 25.01 2.9 37.3 52 -6.1 21.1
07:45 1017 30.03 847 25.01 3 37.3 51 -6.2 20.8
07:50 1017 30.03 847 25.01 3 37.4 51 -6.2 20.9
07:55 1017 30.03 847 25.01 3.1 37.6 50 -6.3 20.7
08:00 1017 30.03 847 25.01 3.1 37.6 51 -6.2 20.9
08:05 1017 30.03 847 25.01 3.1 37.7 51 -6.1 21
08:10 1017 30.03 847 25.01 3.1 37.6 50 -6.2 20.9
08:15 1018 30.06 847 25.01 3.2 37.8 50 -6.1 21
08:20 1018 30.06 847 25.01 3.2 37.8 51 -6 21.1
08:25 1018 30.06 847 25.01 3.2 37.8 51 -6.1 21.1
08:30 1018 30.06 847 25.01 3.2 37.8 51 -5.9 21.4
08:35 1018 30.06 847 25.01 3.3 37.9 51 -6 21.2
08:40 1018 30.06 847 25.01 3.5 38.2 50 -6.1 21
08:45 1018 30.06 847 25.01 3.7 38.6 48 -6.2 20.8
08:50 1018 30.06 847 25.01 3.8 38.8 47 -6.5 20.4
08:55 1018 30.06 847 25.01 3.9 38.9 47 -6.4 20.4
09:00 1018 30.06 847 25.01 3.9 39 47 -6.4 20.5
09:05 1018 30.06 847 25.01 4 39.1 47 -6.3 20.7
09:10 1018 30.06 847 25.01 4 39.2 47 -6.4 20.5
09:15 1018 30.06 847 25.01 4.1 39.4 47 -6.2 20.9
09:20 1018 30.06 847 25.01 4.2 39.6 47 -6.1 21
09:25 1018 30.06 847 25.01 4.3 39.7 47 -6 21.1
09:30 1018 30.06 848 25.04 4.2 39.5 47 -6.1 21
09:35 1018 30.06 848 25.04 4.2 39.6 46 -6.5 20.4
09:40 1018 30.06 848 25.04 4.2 39.6 46 -6.3 20.6
09:45 1018 30.06 848 25.04 4.4 39.9 46 -6.1 21
09:50 1018 30.06 848 25.04 4.5 40.2 46 -6.1 21.1
09:55 1018 30.06 848 25.04 4.8 40.6 43 -6.6 20.1
10:00 1018 30.06 848 25.04 5 41.1 40 -7.3 18.8
10:05 1018 30.06 848 25.04 5.2 41.3 39 -7.7 18.2
10:10 1019 30.09 848 25.04 5.2 41.4 38 -8.1 17.4
10:15 1019 30.09 848 25.04 5.3 41.5 38 -8 17.6
10:20 1019 30.09 848 25.04 5.5 41.8 37 -8.2 17.2
10:25 1019 30.09 848 25.04 5.6 42.1 34 -9 15.9
10:30 1019 30.09 848 25.04 5.5 41.9 34 -9 15.8
10:35 1019 30.09 848 25.04 5.5 41.9 34 -9.1 15.7
10:40 1019 30.09 848 25.04 5.5 41.9 34 -9 15.8
10:45 1019 30.09 848 25.04 5.5 41.9 34 -9.1 15.7
10:50 1019 30.09 848 25.04 5.6 42 35 -8.8 16.2
10:55 1019 30.09 848 25.04 5.6 42.1 35 -8.8 16.1
11:00 1019 30.09 848 25.04 5.5 41.9 35 -8.8 16.2
11:05 1019 30.09 848 25.04 5.4 41.8 36 -8.6 16.5
11:10 1019 30.09 848 25.04 5.4 41.7 36 -8.6 16.4
11:15 1019 30.09 848 25.04 5.5 42 35 -8.6 16.5
11:20 1019 30.09 848 25.04 5.8 42.4 34 -8.9 16
11:25 1019 30.09 848 25.04 5.7 42.3 36 -8.3 17.1
11:30 1019 30.09 848 25.04 5.7 42.2 37 -8 17.6
11:35 1019 30.09 848 25.04 5.6 42 38 -7.8 18
11:40 1019 30.09 848 25.04 5.5 41.8 40 -6.9 19.5
11:45 1019 30.09 848 25.04 5.3 41.6 41 -6.9 19.6
11:50 1019 30.09 848 25.04 5.3 41.6 40 -7.3 18.8
11:55 1019 30.09 848 25.04 5.6 42.1 35 -8.8 16.1
12:00 1019 30.09 848 25.04 6 42.7 35 -8.4 16.9
12:05 1019 30.09 848 25.04 6.1 43 32 -9.5 14.9
12:10 1019 30.09 848 25.04 6 42.8 34 -8.9 16
12:15 1019 30.09 848 25.04 6.1 43 34 -8.5 16.6
12:20 1019 30.09 848 25.04 6.3 43.4 34 -8.5 16.7
12:25 1019 30.09 848 25.04 6.4 43.5 33 -8.6 16.6
12:30 1019 30.09 848 25.04 6.3 43.3 34 -8.4 16.9
12:35 1019 30.09 848 25.04 6.1 43 36 -7.9 17.7
12:40 1019 30.09 848 25.04 5.8 42.5 37 -7.7 18.2
12:45 1019 30.09 848 25.04 5.6 42.1 44 -5.6 22
12:50 1019 30.09 848 25.04 5 41.1 46 -5.7 21.7
12:55 1019 30.09 848 25.04 4.9 40.8 44 -6.4 20.5
13:00 1019 30.09 848 25.04 5.1 41.1 41 -7.2 19
13:05 1019 30.09 848 25.04 5.3 41.6 39 -7.5 18.6
13:10 1019 30.09 848 25.04 5.5 41.9 38 -7.7 18.2
13:15 1019 30.09 848 25.04 5.5 41.9 37 -8.2 17.2
13:20 1019 30.09 848 25.04 5.6 42.1 37 -8 17.7
13:25 1019 30.09 848 25.04 5.7 42.3 37 -8 17.6
13:30 1019 30.09 848 25.04 5.8 42.4 35 -8.5 16.8
13:35 1019 30.09 848 25.04 5.8 42.4 36 -8.3 17
13:40 1019 30.09 848 25.04 5.9 42.6 35 -8.3 17.1
13:45 1019 30.09 848 25.04 6 42.7 34 -8.8 16.2
13:50 1019 30.09 848 25.04 6 42.7 33 -9.2 15.5
13:55 1019 30.09 848 25.04 5.9 42.7 33 -9.2 15.4
14:00 1019 30.09 848 25.04 5.9 42.7 34 -8.9 15.9
14:05 1019 30.09 848 25.04 6.1 43 34 -8.7 16.3
14:10 1019 30.09 848 25.04 6.4 43.5 32 -9 15.8
14:15 1019 30.09 848 25.04 6.4 43.5 32 -9.2 15.5
14:20 1019 30.09 848 25.04 6.4 43.4 31 -9.4 15
14:25 1019 30.09 848 25.04 6.3 43.3 32 -9.4 15.1
14:30 1019 30.09 848 25.04 6.3 43.4 32 -9 15.7
14:35 1019 30.09 848 25.04 6.5 43.6 32 -9 15.8
14:40 1019 30.09 848 25.04 6.4 43.6 32 -9.2 15.4
14:45 1019 30.09 848 25.04 6.4 43.5 30 -9.9 14.2
14:50 1019 30.09 848 25.04 6.4 43.6 30 -10 14.1
14:55 1019 30.09 848 25.04 6.5 43.8 30 -9.9 14.3
15:00 1019 30.09 848 25.04 6.5 43.8 30 -10 14.1
15:05 1019 30.09 848 25.04 6.6 43.8 29 -10.1 13.8
15:10 1019 30.09 848 25.04 6.7 44.1 29 -10.1 13.8
15:15 1019 30.09 848 25.04 6.6 43.9 29 -10.4 13.3
15:20 1019 30.09 848 25.04 6.9 44.4 29 -10 14
15:25 1019 30.09 848 25.04 6.8 44.2 30 -9.7 14.5
15:30 1019 30.09 848 25.04 7.1 44.8 26 -10.9 12.4
15:35 1019 30.09 848 25.04 7.1 44.7 28 -10.3 13.4
15:40 1019 30.09 848 25.04 6.9 44.4 29 -9.8 14.4
15:45 1019 30.09 848 25.04 6.6 43.8 31 -9.6 14.8
15:50 1019 30.09 848 25.04 6.4 43.4 31 -9.6 14.7
15:55 1019 30.09 848 25.04 6.3 43.4 31 -9.4 15
16:00 1019 30.09 848 25.04 6.5 43.7 31 -9.4 15.1
16:05 1019 30.09 848 25.04 6.7 44 30 -9.9 14.3
16:10 1019 30.09 848 25.04 6.7 44.1 30 -9.5 14.9
16:15 1019 30.09 848 25.04 6.5 43.7 31 -9.4 15.1
16:20 1019 30.09 848 25.04 6.4 43.6 31 -9.6 14.7
16:25 1019 30.09 848 25.04 6.3 43.3 31 -9.6 14.7
16:30 1019 30.09 848 25.04 6.1 43 32 -9.4 15.2
16:35 1019 30.09 848 25.04 6 42.8 33 -9.1 15.6
16:40 1019 30.09 848 25.04 5.8 42.5 33 -9.1 15.6
16:45 1019 30.09 848 25.04 5.7 42.2 34 -9 15.7
16:50 1019 30.09 848 25.04 5.6 42.1 34 -9 15.9
16:55 1019 30.09 848 25.04 5.5 41.9 34 -9.1 15.6
17:00 1019 30.09 849 25.07 5.5 41.9 34 -9.3 15.3
17:05 1019 30.09 849 25.07 5.5 41.9 34 -9.1 15.5
17:10 1019 30.09 849 25.07 5.4 41.8 35 -8.9 15.9
17:15 1020 30.12 849 25.07 5.4 41.6 36 -8.4 16.9
17:20 1020 30.12 849 25.07 5.2 41.3 38 -7.9 17.9
17:25 1020 30.12 849 25.07 4.9 40.9 39 -7.9 17.8
17:30 1020 30.12 849 25.07 4.9 40.8 39 -8 17.5
17:35 1020 30.12 849 25.07 4.9 40.9 38 -8.2 17.3
17:40 1020 30.12 849 25.07 4.9 40.7 38 -8.3 17
17:45 1020 30.12 849 25.07 4.8 40.6 38 -8.4 16.9
17:50 1020 30.12 849 25.07 4.7 40.4 37 -8.7 16.3
17:55 1020 30.12 849 25.07 4.6 40.3 37 -8.8 16.2
18:00 1020 30.12 849 25.07 4.5 40.1 37 -9.1 15.7
18:05 1020 30.12 849 25.07 4.3 39.8 38 -8.9 16.1
18:10 1020 30.12 849 25.07 4.1 39.4 39 -8.8 16.2
18:15 1020 30.12 849 25.07 3.9 39 41 -8.3 17.1
18:20 1020 30.12 849 25.07 3.5 38.2 41 -8.6 16.4
18:25 1020 30.12 849 25.07 3.4 38 42 -8.3 17.1
18:30 1020 30.12 849 25.07 3.2 37.7 43 -8.4 16.9
18:35 1020 30.12 849 25.07 3.1 37.5 42 -8.5 16.7
18:40 1020 30.12 849 25.07 3 37.4 42 -8.6 16.6
18:45 1020 30.12 849 25.07 3 37.5 41 -9 15.9
18:50 1020 30.12 849 25.07 3.1 37.5 42 -8.5 16.7
18:55 1020 30.12 849 25.07 2.9 37.2 43 -8.6 16.6
19:00 1020 30.12 849 25.07 2.9 37.1 43 -8.6 16.6
19:05 1020 30.12 849 25.07 2.8 37.1 43 -8.6 16.6
19:10 1020 30.12 849 25.07 2.8 37 42 -8.8 16.2
19:15 1020 30.12 849 25.07 2.9 37.2 44 -8.3 17
19:20 1020 30.12 849 25.07 2.2 35.9 49 -7.5 18.5
19:25 1020 30.12 849 25.07 1.5 34.7 50 -7.8 18
19:30 1020 30.12 849 25.07 1.4 34.5 50 -8 17.6
19:35 1020 30.12 849 25.07 1.5 34.7 49 -8 17.5
19:40 1020 30.12 849 25.07 1.7 35 48 -8.2 17.2
19:45 1020 30.12 849 25.07 1.8 35.3 47 -8.2 17.2
19:50 1020 30.12 849 25.07 2 35.5 47 -8.3 17
19:55 1020 30.12 849 25.07 1.9 35.4 47 -8.3 17.1
20:00 1020 30.12 850 25.1 2 35.6 46 -8.5 16.7
20:05 1020 30.12 850 25.1 2 35.6 46 -8.4 16.8
20:10 1020 30.12 850 25.1 1.9 35.4 47 -8.3 17.1
20:15 1020 30.12 850 25.1 1.7 35.1 47 -8.4 16.9
20:20 1020 30.12 850 25.1 1.6 34.8 48 -8.3 17
20:25 1021 30.15 850 25.1 1.4 34.5 49 -8.2 17.2
20:30 1020 30.12 850 25.1 1.4 34.5 50 -7.9 17.8
20:35 1021 30.15 850 25.1 1.2 34.1 51 -8 17.7
20:40 1021 30.15 850 25.1 1.1 34.1 50 -8.1 17.5
20:45 1021 30.15 850 25.1 1.2 34.1 50 -8.1 17.5
20:50 1021 30.15 850 25.1 1.2 34.2 48 -8.5 16.7
20:55 1021 30.15 850 25.1 1.5 34.6 49 -8.1 17.4
21:00 1021 30.15 850 25.1 1.2 34.2 50 -8.2 17.3
21:05 1021 30.15 850 25.1 1 33.8 51 -8.1 17.4
21:10 1021 30.15 850 25.1 0.9 33.7 50 -8.5 16.7
21:15 1021 30.15 850 25.1 1.1 34 50 -8.3 17.1
21:20 1021 30.15 850 25.1 1 33.8 51 -8.1 17.4
21:25 1021 30.15 850 25.1 0.7 33.2 53 -7.8 18
21:30 1021 30.15 850 25.1 0.6 33 53 -8 17.6
21:35 1021 30.15 850 25.1 0.6 33.1 53 -7.9 17.7
21:40 1021 30.15 850 25.1 0.8 33.5 53 -7.8 17.9
21:45 1021 30.15 850 25.1 0.8 33.4 51 -8.3 17.1
21:50 1021 30.15 850 25.1 0.7 33.3 52 -8 17.6
21:55 1021 30.15 850 25.1 0.6 33.1 52 -8.1 17.4
22:00 1021 30.15 850 25.1 0.8 33.4 51 -8.1 17.4
22:05 1021 30.15 850 25.1 0.7 33.3 54 -7.7 18.2
22:10 1021 30.15 850 25.1 0.7 33.3 52 -8 17.5
22:15 1021 30.15 850 25.1 0.7 33.3 52 -8 17.5
22:20 1021 30.15 850 25.1 0.8 33.4 52 -8 17.7
22:25 1021 30.15 850 25.1 0.8 33.4 53 -7.7 18.1
22:30 1021 30.15 850 25.1 0.5 32.9 54 -7.8 18
22:35 1021 30.15 850 25.1 0.5 32.8 54 -7.7 18.1
22:40 1021 30.15 850 25.1 0.2 32.3 56 -7.6 18.4
22:45 1021 30.15 850 25.1 -0.1 31.9 56 -7.8 18
22:50 1021 30.15 850 25.1 -0 32 56 -7.7 18.1
22:55 1021 30.15 850 25.1 0.3 32.6 55 -7.6 18.3
23:00 1021 30.15 850 25.1 0.2 32.4 58 -7.1 19.3
23:05 1021 30.15 850 25.1 0.5 32.8 56 -7.3 18.8
23:10 1021 30.15 850 25.1 0.6 33.2 57 -6.9 19.6
23:15 1021 30.15 850 25.1 0.2 32.3 57 -7.3 18.9
23:20 1021 30.15 850 25.1 -0.2 31.7 58 -7.5 18.5
23:25 1021 30.15 850 25.1 -0.5 31.1 60 -7.3 18.9
23:30 1021 30.15 850 25.1 -0.8 30.6 61 -7.5 18.5
23:35 1021 30.15 850 25.1 -1 30.2 62 -7.4 18.7
23:40 1021 30.15 850 25.1 -1 30.2 61 -7.7 18.2
23:45 1021 30.15 850 25.1 -0.8 30.5 63 -7.1 19.3
23:50 1021 30.15 850 25.1 -0.9 30.3 61 -7.6 18.3
23:55 1021 30.15 850 25.1 -0.9 30.4 63 -7.1 19.1
24:00 1021 30.15 850 25.1 -1.2 29.8 62 -7.5 18.4